Flight Track Log - Related Links

Times and Time Zones

All times are in EDT time to prevent confusion due to time zone crossing. See the EJA951 flight status page for this flight to view local times or setup timezone preferences in your user account.

Time Position Orientation Groundspeed Altitude Reporting Facility
EDT Latitude Longitude Course Direction KTS MPH feet Rate Location/Type
Sat 05:28:33 PM 43.5653 -96.7608 226° Southwest 180 207 16,000  Level Minneapolis Center
Sat 05:29:35 PM 43.5325 -96.8078 226° Southwest 177 204 7,000 -2,390 Descending Minneapolis Center
Sat 05:30:36 PM 43.6022 -96.8422 340° North 298 343 11,100 3,268 Climbing Minneapolis Center
Sat 05:31:38 PM 43.7017 -96.8178 10° North 335 386 13,700 2,390 Climbing Minneapolis Center
Sat 05:32:39 PM 43.8139 -96.8267 357° North 386 444 16,000 1,122 Climbing Minneapolis Center
Sat 05:33:41 PM 43.9353 -96.8556 350° North 433 498 16,000  Level Minneapolis Center
Sat 05:34:42 PM 44.0581 -96.8886 349° North 443 510 16,000  Level Minneapolis Center
Sat 05:35:44 PM 44.1806 -96.9222 349° North 445 512 16,000  Level Minneapolis Center
Sat 05:36:45 PM 44.3033 -96.9550 349° North 446 513 16,000  Level Minneapolis Center
Sat 05:37:47 PM 44.4236 -96.9886 349° North 443 510 16,000  Level Minneapolis Center
Sat 05:38:48 PM 44.5669 -97.0272 349° North 438 504 16,000  Level Minneapolis Center
Sat 05:39:50 PM 44.6872 -97.0614 349° North 438 504 16,000  Level Minneapolis Center
Sat 05:40:51 PM 44.8064 -97.0961 348° North 438 504 16,000  Level Minneapolis Center
Sat 05:41:52 PM 44.9244 -97.1300 349° North 436 502 16,000  Level Minneapolis Center
Sat 05:42:54 PM 45.0472 -97.1364 358° North 442 509 16,000  Level Minneapolis Center
Sat 05:43:55 PM 45.1753 -97.1100 North 463 533 16,000  Level Minneapolis Center
Sat 05:44:57 PM 45.2947 -97.0897 North 443 510 16,000  Level Minneapolis Center
Sat 05:45:58 PM 45.4117 -97.0733 North 429 494 16,000  Level Minneapolis Center
Sat 05:46:59 PM 45.5347 -97.0536 North 437 503 16,000  Level Minneapolis Center
Sat 05:48:01 PM 45.6844 -97.0278 North 449 517 16,000  Level Minneapolis Center
Sat 05:49:02 PM 45.8094 -97.0086 North 453 521 16,000 -49 Level Minneapolis Center
Sat 05:50:04 PM 45.9175 -96.9914 North 452 520 15,900 -488 Descending Minneapolis Center
Sat 05:51:05 PM 46.0411 -96.9714 North 451 519 15,000 -1,610 Descending Minneapolis Center
Sat 05:52:07 PM 46.1892 -96.9453 North 436 502 12,600 -2,321 Descending Minneapolis Center
Sat 05:53:22 PM 46.3092 -96.9256 North 325 374 9,700 -2,244 Descending Minneapolis Center
Sat 05:54:10 PM 46.3731 -96.9192 North 292 336 8,000 -1,982 Descending Minneapolis Center
Sat 05:55:11 PM 46.4544 -96.9256 357° North 282 325 6,100 -984 Descending Minneapolis Center
Sat 05:56:12 PM 46.5275 -96.9356 355° North 274 315 6,000 -49 Descending Minneapolis Center
Sat 05:57:14 PM 46.6058 -96.9475 354° North 271 312 6,000  Level Minneapolis Center
Sat 05:57:23 PM 46.6172 -96.9494 353° North 268 308 6,000  Level Minneapolis Center
Sat 05:58:15 PM 46.6819 -96.9631 352° North 267 307 6,000  Level Minneapolis Center
Sat 05:59:17 PM 46.7522 -96.9797 351° North 265 305 6,000  Level Minneapolis Center
Sat 06:00:18 PM 46.8289 -96.9986 350° North 266 306 6,000 -738 Level Minneapolis Center
Sat 06:01:19 PM 46.9078 -96.9978 360° North 273 314 4,500 -1,477 Descending Minneapolis Center
Sat 06:01:23 PM 46.9136 -96.9961 11° North 279 321 4,400 -484 Descending Minneapolis Center
Sat 06:02:21 PM 46.9797 -96.9864 North 268 308 4,000 -202 Descending Minneapolis Center
Sat 06:03:22 PM 47.0567 -96.9722 North 266 306 4,000  Level Minneapolis Center
Sat 06:04:24 PM 47.1278 -96.9492 12° North 255 293 4,000  Level Minneapolis Center
Sat 06:05:24 PM 47.1267 -96.8647 91° East 222 255 4,000  Level Minneapolis Center
Sat 06:05:25 PM 47.1278 -96.8628 50° Northeast 223 257 4,000 -1,355 Level Minneapolis Center
Sat 06:06:26 PM 47.0750 -96.8169 149° Southeast 213 245 2,600 -732 Descending Minneapolis Center
Sat 06:07:28 PM 47.0197 -96.8153 179° South 195 224 2,500 -390 Descending Minneapolis Center
Sat 06:08:29 PM 46.9783 -96.8156 180° South 163 188 1,800 -672 Descending Minneapolis Center
Sat 06:09:24 PM 46.9469 -96.8158 180° South 120 138 1,200 -689 Descending Minneapolis Center
Sat 06:09:30 PM 46.9442 -96.8158 180° South 121 139 1,100 -1,000 Descending Minneapolis Center

Login

Don't have an account? Register now (free) for customized features, flight alerts, and more!